createdAt,value
2023-01-22T00:01:16.516Z,43.60
2023-01-22T00:03:46.588Z,44.72
2023-01-22T00:06:14.441Z,42.15
2023-01-22T00:08:42.351Z,47.33
2023-01-22T00:11:11.124Z,54.90
2023-01-22T00:13:38.700Z,43.05
2023-01-22T00:16:07.518Z,36.95
2023-01-22T00:18:35.223Z,38.08
2023-01-22T00:21:02.503Z,38.50
2023-01-22T00:23:30.079Z,36.90
2023-01-22T00:26:10.993Z,33.47
2023-01-22T00:28:39.024Z,35.38
2023-01-22T00:31:07.792Z,34.85
2023-01-22T00:33:35.286Z,33.67
2023-01-22T00:36:10.271Z,34.25
2023-01-22T00:38:37.785Z,31.92
2023-01-22T00:41:08.651Z,30.42
2023-01-22T00:43:40.553Z,28.98
2023-01-22T00:46:09.952Z,31.15
2023-01-22T00:48:37.494Z,29.63
2023-01-22T00:51:05.745Z,29.20
2023-01-22T00:53:33.148Z,29.38
2023-01-22T00:56:02.122Z,27.92
2023-01-22T00:58:30.649Z,28.83
2023-01-22T01:00:58.260Z,29.60
2023-01-22T01:03:32.424Z,30.50
2023-01-22T01:06:15.793Z,33.35
2023-01-22T01:08:44.143Z,31.50
2023-01-22T01:11:22.664Z,32.28
2023-01-22T01:13:51.653Z,32.58
2023-01-22T01:16:26.767Z,31.17
2023-01-22T01:19:04.914Z,27.25
2023-01-22T01:21:32.907Z,28.75
2023-01-22T01:24:00.763Z,27.55
2023-01-22T01:26:28.611Z,27.02
2023-01-22T01:28:56.781Z,26.95
2023-01-22T01:31:26.269Z,28.48
2023-01-22T01:33:54.002Z,29.52
2023-01-22T01:36:46.396Z,29.27
2023-01-22T01:39:11.537Z,29.02
2023-01-22T01:41:38.858Z,30.35
2023-01-22T01:44:23.223Z,29.50
2023-01-22T01:47:01.229Z,27.65
2023-01-22T01:49:43.703Z,31.75
2023-01-22T01:52:13.010Z,33.80
2023-01-22T01:54:45.196Z,34.05
2023-01-22T01:57:19.208Z,33.15
2023-01-22T01:59:50.102Z,31.25
2023-01-22T02:02:19.903Z,34.92
2023-01-22T02:04:50.899Z,36.58
2023-01-22T02:07:18.784Z,36.38
2023-01-22T02:09:46.985Z,36.47
2023-01-22T02:12:14.204Z,36.75
2023-01-22T02:14:44.570Z,39.38
2023-01-22T02:17:12.947Z,37.08
2023-01-22T02:19:41.413Z,35.83
2023-01-22T02:22:19.306Z,34.85
2023-01-22T02:24:47.506Z,34.97
2023-01-22T02:27:14.969Z,33.67
2023-01-22T02:29:42.626Z,33.80
2023-01-22T02:32:11.523Z,34.05
2023-01-22T02:34:39.100Z,34.05
2023-01-22T02:37:06.434Z,34.88
2023-01-22T02:39:34.039Z,36.97
2023-01-22T02:42:05.284Z,33.22
2023-01-22T02:44:33.005Z,34.20
2023-01-22T02:47:00.361Z,35.63
2023-01-22T02:49:28.338Z,33.75
2023-01-22T02:51:55.508Z,39.10
2023-01-22T02:54:24.291Z,39.47
2023-01-22T02:56:51.450Z,41.17
2023-01-22T02:59:19.174Z,33.47
2023-01-22T03:01:48.474Z,39.28
2023-01-22T03:04:16.579Z,34.78
2023-01-22T03:06:45.889Z,37.50
2023-01-22T03:09:16.201Z,37.05
2023-01-22T03:11:45.829Z,35.65
2023-01-22T03:14:35.945Z,35.30
2023-01-22T03:17:22.184Z,36.22
2023-01-22T03:20:10.156Z,36.63
2023-01-22T03:22:37.452Z,37.78
2023-01-22T03:25:05.351Z,39.75
2023-01-22T03:27:33.063Z,39.35
2023-01-22T03:30:00.677Z,41.42
2023-01-22T03:32:32.927Z,39.60
2023-01-22T03:35:01.795Z,42.55
2023-01-22T03:37:39.645Z,41.90
2023-01-22T03:40:09.915Z,41.17
2023-01-22T03:42:39.162Z,41.72
2023-01-22T03:45:07.724Z,41.08
2023-01-22T03:47:37.545Z,42.20
2023-01-22T03:50:18.972Z,41.35
2023-01-22T03:52:46.567Z,37.83
2023-01-22T03:55:13.997Z,39.65
2023-01-22T03:57:41.859Z,38.00
2023-01-22T04:00:10.063Z,36.45
2023-01-22T04:02:40.456Z,37.75
2023-01-22T04:05:18.275Z,36.35
2023-01-22T04:07:45.549Z,37.70
2023-01-22T04:10:14.176Z,34.40
2023-01-22T04:12:41.536Z,39.28
2023-01-22T04:15:11.542Z,36.22
2023-01-22T04:17:39.915Z,36.78
2023-01-22T04:20:21.183Z,39.40
2023-01-22T04:22:58.394Z,38.95
2023-01-22T04:25:25.948Z,37.22
2023-01-22T04:27:53.151Z,36.00
2023-01-22T04:30:20.924Z,38.53
2023-01-22T04:32:53.671Z,36.28
2023-01-22T04:35:31.346Z,38.10
2023-01-22T04:37:59.751Z,39.30
2023-01-22T04:40:27.416Z,35.95
2023-01-22T04:42:55.541Z,31.75
2023-01-22T04:45:24.163Z,33.60
2023-01-22T04:47:51.859Z,32.85
2023-01-22T04:50:26.812Z,32.72
2023-01-22T04:52:56.036Z,29.90
2023-01-22T04:55:24.949Z,31.15
2023-01-22T04:58:00.205Z,29.13
2023-01-22T05:00:29.787Z,28.30
2023-01-22T05:03:00.250Z,28.77
2023-01-22T05:05:30.249Z,28.10
2023-01-22T05:07:58.452Z,28.42
2023-01-22T05:10:26.907Z,27.02
2023-01-22T05:12:54.468Z,28.08
2023-01-22T05:15:24.824Z,25.50
2023-01-22T05:17:55.755Z,25.30
2023-01-22T05:20:23.221Z,24.05
2023-01-22T05:22:50.428Z,25.08
2023-01-22T05:25:21.892Z,25.92
2023-01-22T05:27:49.258Z,25.40
2023-01-22T05:30:28.225Z,26.48
2023-01-22T05:33:00.271Z,25.38
2023-01-22T05:35:29.141Z,27.67
2023-01-22T05:37:57.209Z,27.10
2023-01-22T05:40:24.966Z,28.33
2023-01-22T05:42:53.289Z,28.70
2023-01-22T05:45:22.100Z,28.55
2023-01-22T05:48:12.082Z,25.17
2023-01-22T05:51:07.112Z,27.65
2023-01-22T05:53:35.628Z,27.45
2023-01-22T05:56:04.477Z,27.17
2023-01-22T05:58:35.709Z,27.65
2023-01-22T06:01:03.949Z,27.60
2023-01-22T06:03:37.072Z,28.13
2023-01-22T06:06:12.544Z,30.20
2023-01-22T06:08:40.297Z,32.72
2023-01-22T06:11:15.489Z,33.85
2023-01-22T06:13:46.530Z,29.10
2023-01-22T06:16:21.942Z,28.77
2023-01-22T06:19:08.402Z,30.13
2023-01-22T06:21:46.047Z,29.15
2023-01-22T06:24:13.664Z,30.30
2023-01-22T06:26:41.544Z,33.00
2023-01-22T06:29:11.905Z,30.65
2023-01-22T06:31:40.641Z,28.33
2023-01-22T06:34:09.393Z,29.10
2023-01-22T06:36:36.977Z,30.00
2023-01-22T06:39:05.204Z,29.38
2023-01-22T06:41:39.852Z,32.05
2023-01-22T06:44:10.404Z,28.13
2023-01-22T06:46:38.230Z,29.52
2023-01-22T06:49:10.419Z,28.27
2023-01-22T06:51:40.458Z,29.95
2023-01-22T06:54:08.296Z,29.85
2023-01-22T06:56:35.885Z,28.77
2023-01-22T06:59:04.873Z,29.70
2023-01-22T07:01:32.354Z,26.92
2023-01-22T07:03:59.631Z,27.33
2023-01-22T07:06:27.007Z,26.55
2023-01-22T07:08:56.282Z,28.30
2023-01-22T07:11:23.812Z,27.25
2023-01-22T07:13:50.977Z,27.10
2023-01-22T07:16:18.419Z,28.10
2023-01-22T07:18:45.581Z,30.33
2023-01-22T07:21:13.299Z,28.48
2023-01-22T07:23:42.024Z,27.48
2023-01-22T07:26:09.565Z,26.70
2023-01-22T07:28:36.715Z,27.70
2023-01-22T07:31:05.370Z,26.95
2023-01-22T07:33:34.224Z,26.10
2023-01-22T07:36:01.649Z,26.05
2023-01-22T07:38:29.296Z,25.08
2023-01-22T07:41:14.105Z,26.02
2023-01-22T07:43:49.292Z,25.35
2023-01-22T07:46:16.964Z,26.08
2023-01-22T07:48:45.901Z,26.13
2023-01-22T07:51:13.463Z,26.40
2023-01-22T07:53:41.914Z,24.90
2023-01-22T07:56:09.379Z,23.35
2023-01-22T07:58:36.451Z,25.73
2023-01-22T08:01:08.075Z,24.65
2023-01-22T08:03:35.306Z,24.05
2023-01-22T08:06:08.395Z,24.30
2023-01-22T08:08:35.810Z,22.45
2023-01-22T08:11:03.686Z,23.10
2023-01-22T08:13:31.086Z,24.88
2023-01-22T08:15:58.574Z,24.23
2023-01-22T08:18:25.790Z,23.10
2023-01-22T08:20:53.349Z,22.73
2023-01-22T08:23:21.936Z,20.55
2023-01-22T08:25:49.629Z,20.85
2023-01-22T08:28:17.475Z,21.08
2023-01-22T08:30:46.814Z,20.38
2023-01-22T08:33:16.003Z,19.80
2023-01-22T08:35:44.911Z,21.35
2023-01-22T08:38:12.083Z,20.08
2023-01-22T08:40:39.501Z,18.52
2023-01-22T08:43:06.648Z,19.88
2023-01-22T08:45:34.364Z,20.85
2023-01-22T08:48:01.835Z,18.45
2023-01-22T08:50:29.692Z,20.20
2023-01-22T08:52:57.820Z,20.67
2023-01-22T08:55:27.635Z,19.95
2023-01-22T08:57:56.096Z,19.77
2023-01-22T09:00:24.956Z,20.50
2023-01-22T09:02:52.221Z,21.17
2023-01-22T09:05:19.632Z,20.95
2023-01-22T09:07:46.768Z,20.90
2023-01-22T09:10:14.587Z,20.92
2023-01-22T09:12:41.836Z,20.70
2023-01-22T09:15:10.556Z,21.52
2023-01-22T09:17:37.660Z,21.90
2023-01-22T09:20:05.571Z,20.58
2023-01-22T09:22:32.813Z,20.70
2023-01-22T09:25:00.433Z,19.52
2023-01-22T09:27:27.613Z,22.20
2023-01-22T09:29:55.024Z,21.92
2023-01-22T09:32:22.113Z,21.67
2023-01-22T09:34:49.476Z,24.88
2023-01-22T09:37:16.820Z,24.10
2023-01-22T09:39:44.334Z,22.95
2023-01-22T09:42:21.464Z,23.23
2023-01-22T09:44:55.010Z,29.73
2023-01-22T09:47:38.466Z,28.50
2023-01-22T09:50:31.208Z,26.45
2023-01-22T09:53:05.007Z,24.50
2023-01-22T09:55:41.680Z,29.58
2023-01-22T09:58:17.127Z,32.50
2023-01-22T10:00:50.380Z,45.45
2023-01-22T10:03:34.498Z,27.50
2023-01-22T10:06:15.736Z,44.83
2023-01-22T10:08:58.452Z,41.10
2023-01-22T10:11:26.337Z,29.75
2023-01-22T10:13:59.735Z,34.30
2023-01-22T10:16:27.895Z,29.52
2023-01-22T10:19:11.666Z,24.75
2023-01-22T10:21:48.618Z,45.92
2023-01-22T10:24:15.875Z,38.70
2023-01-22T10:26:54.184Z,54.13
2023-01-22T10:29:29.749Z,47.63
2023-01-22T10:32:17.331Z,34.97
2023-01-22T10:34:56.913Z,29.73
2023-01-22T10:37:24.394Z,41.03
2023-01-22T10:39:57.877Z,45.60
2023-01-22T10:42:28.527Z,39.03
2023-01-22T10:45:14.800Z,29.83
2023-01-22T10:47:42.357Z,44.97
2023-01-22T10:50:16.772Z,30.50
2023-01-22T10:52:55.402Z,31.02
2023-01-22T10:55:31.991Z,37.90
2023-01-22T10:58:03.127Z,34.67
2023-01-22T11:00:50.948Z,96.40
2023-01-22T11:03:23.070Z,43.08
2023-01-22T11:05:57.876Z,44.65
2023-01-22T11:08:30.757Z,37.55
2023-01-22T11:11:03.462Z,56.10
2023-01-22T11:13:53.214Z,46.25
2023-01-22T11:16:23.260Z,50.17
2023-01-22T11:19:36.920Z,73.85
2023-01-22T11:22:14.433Z,56.30
2023-01-22T11:24:47.364Z,50.22
2023-01-22T11:27:21.815Z,43.25
2023-01-22T11:30:18.121Z,60.83
2023-01-22T11:33:07.736Z,63.63
2023-01-22T11:35:46.568Z,51.60
2023-01-22T11:38:18.920Z,47.42
2023-01-22T11:40:58.842Z,78.18
2023-01-22T11:43:46.643Z,47.05
2023-01-22T11:46:25.361Z,70.45
2023-01-22T11:49:22.792Z,72.13
2023-01-22T11:52:05.093Z,54.60
2023-01-22T11:54:52.550Z,86.05
2023-01-22T11:57:33.084Z,62.38
2023-01-22T12:00:44.481Z,68.45
2023-01-22T12:03:39.602Z,57.33
2023-01-22T12:06:40.834Z,44.20
2023-01-22T12:09:14.212Z,52.20
2023-01-22T12:12:02.856Z,45.92
2023-01-22T12:14:49.884Z,71.65
2023-01-22T12:17:17.015Z,51.28
2023-01-22T12:20:12.938Z,50.83
2023-01-22T12:23:01.088Z,53.72
2023-01-22T12:25:41.460Z,77.82
2023-01-22T12:28:40.433Z,64.95
2023-01-22T12:31:23.230Z,55.25
2023-01-22T12:36:22.597Z,52.55
2023-01-22T12:39:07.691Z,51.13
2023-01-22T12:41:35.038Z,63.72
2023-01-22T12:44:45.631Z,62.03
2023-01-22T12:47:23.953Z,53.38
2023-01-22T12:49:52.644Z,51.33
2023-01-22T12:52:33.980Z,55.10
2023-01-22T12:55:03.006Z,53.90
2023-01-22T12:57:40.230Z,59.35
2023-01-22T13:00:24.705Z,50.67
2023-01-22T13:02:52.400Z,63.22
2023-01-22T13:05:40.237Z,67.40
2023-01-22T13:08:16.885Z,66.90
2023-01-22T13:11:13.497Z,56.80
2023-01-22T13:13:49.491Z,74.00
2023-01-22T13:16:18.645Z,51.17
2023-01-22T13:18:58.047Z,51.20
2023-01-22T13:21:32.422Z,56.58
2023-01-22T13:24:13.517Z,62.72
2023-01-22T13:26:41.508Z,56.65
2023-01-22T13:29:21.554Z,49.53
2023-01-22T13:32:17.590Z,57.38
2023-01-22T13:34:45.055Z,60.08
2023-01-22T13:37:27.799Z,51.00
2023-01-22T13:39:55.340Z,47.95
2023-01-22T13:42:24.761Z,53.72
2023-01-22T13:44:52.679Z,69.72
2023-01-22T13:47:36.132Z,64.30
2023-01-22T13:50:04.222Z,55.20
2023-01-22T13:52:33.534Z,56.90
2023-01-22T13:55:05.749Z,52.67
2023-01-22T13:57:32.953Z,56.22
2023-01-22T14:00:02.296Z,54.22
2023-01-22T14:02:37.639Z,53.67
2023-01-22T14:05:26.802Z,58.88
2023-01-22T14:08:13.669Z,54.28
2023-01-22T14:10:42.200Z,60.08
2023-01-22T14:13:13.532Z,51.50
2023-01-22T14:15:41.894Z,56.05
2023-01-22T14:18:13.428Z,54.53
2023-01-22T14:20:43.005Z,67.40
2023-01-22T14:23:10.459Z,61.63
2023-01-22T14:25:40.618Z,55.05
2023-01-22T14:28:08.177Z,53.95
2023-01-22T14:30:36.367Z,60.85
2023-01-22T14:33:04.198Z,61.25
2023-01-22T14:35:32.067Z,65.03
2023-01-22T14:37:59.445Z,62.33
2023-01-22T14:40:27.826Z,76.95
2023-01-22T14:42:55.137Z,59.78
2023-01-22T14:45:22.728Z,59.58
2023-01-22T14:47:51.780Z,52.80
2023-01-22T14:50:20.864Z,58.55
2023-01-22T14:52:50.987Z,61.95
2023-01-22T14:55:19.415Z,58.10
2023-01-22T14:57:46.857Z,66.82
2023-01-22T15:00:16.826Z,53.20
2023-01-22T15:02:44.300Z,59.08
2023-01-22T15:05:12.240Z,55.30
2023-01-22T15:07:39.460Z,60.22
2023-01-22T15:10:08.542Z,57.17
2023-01-22T15:12:35.937Z,47.97
2023-01-22T15:15:03.671Z,47.67
2023-01-22T15:17:31.154Z,49.08
2023-01-22T15:19:59.105Z,50.47
2023-01-22T15:22:26.389Z,46.47
2023-01-22T15:24:53.873Z,48.25
2023-01-22T15:27:21.052Z,45.97
2023-01-22T15:29:48.698Z,44.60
2023-01-22T15:32:16.228Z,46.88
2023-01-22T15:34:43.725Z,44.55
2023-01-22T15:37:13.705Z,46.60
2023-01-22T15:39:41.925Z,50.90
2023-01-22T15:42:09.329Z,49.03
2023-01-22T15:44:37.613Z,50.33
2023-01-22T15:47:05.861Z,54.22
2023-01-22T15:49:33.934Z,53.00
2023-01-22T15:52:01.435Z,54.67
2023-01-22T15:54:28.927Z,53.20
2023-01-22T15:56:56.758Z,77.28
2023-01-22T15:59:24.372Z,58.47
2023-01-22T16:01:52.508Z,55.22
2023-01-22T16:04:20.086Z,55.95
2023-01-22T16:06:47.312Z,47.53
2023-01-22T16:09:14.875Z,51.70
2023-01-22T16:11:42.181Z,55.00
2023-01-22T16:14:09.659Z,56.88
2023-01-22T16:16:38.024Z,58.40
2023-01-22T16:19:07.894Z,60.60
2023-01-22T16:21:35.915Z,66.38
2023-01-22T16:24:07.095Z,51.80
2023-01-22T16:26:35.049Z,51.92
2023-01-22T16:29:04.705Z,51.15
2023-01-22T16:31:34.567Z,56.10
2023-01-22T16:34:11.570Z,53.38
2023-01-22T16:36:39.656Z,55.30
2023-01-22T16:39:07.878Z,58.30
2023-01-22T16:41:36.935Z,54.83
2023-01-22T16:44:14.815Z,58.20
2023-01-22T16:46:44.740Z,54.05
2023-01-22T16:49:15.111Z,55.17
2023-01-22T16:51:45.632Z,59.05
2023-01-22T16:54:27.976Z,59.47
2023-01-22T16:56:57.436Z,54.60
2023-01-22T16:59:27.074Z,58.95
2023-01-22T17:01:55.687Z,53.85
2023-01-22T17:04:23.420Z,54.95
2023-01-22T17:06:53.280Z,50.55
2023-01-22T17:09:24.441Z,56.83
2023-01-22T17:11:53.555Z,62.42
2023-01-22T17:14:23.056Z,52.35
2023-01-22T17:16:50.824Z,62.83
2023-01-22T17:19:19.639Z,56.50
2023-01-22T17:21:50.578Z,51.30
2023-01-22T17:24:18.579Z,62.45
2023-01-22T17:26:47.974Z,52.75
2023-01-22T17:29:19.725Z,50.78
2023-01-22T17:31:50.172Z,50.15
2023-01-22T17:34:18.425Z,49.50
2023-01-22T17:36:45.744Z,50.22
2023-01-22T17:39:17.128Z,47.70
2023-01-22T17:41:45.030Z,56.60
2023-01-22T17:44:12.979Z,56.78
2023-01-22T17:46:40.477Z,55.92
2023-01-22T17:49:08.129Z,50.45
2023-01-22T17:51:35.885Z,62.50
2023-01-22T17:54:06.019Z,48.00
2023-01-22T17:56:37.134Z,47.10
2023-01-22T17:59:06.468Z,55.75
2023-01-22T18:01:35.799Z,139.75
2023-01-22T18:04:06.425Z,65.40
2023-01-22T18:06:34.667Z,59.08
2023-01-22T18:09:02.999Z,50.42
2023-01-22T18:11:30.643Z,67.85
2023-01-22T18:14:03.646Z,95.65
2023-01-22T18:16:33.625Z,62.20
2023-01-22T18:19:05.242Z,49.72
2023-01-22T18:21:32.939Z,63.83
2023-01-22T18:24:02.240Z,74.82
2023-01-22T18:26:29.781Z,82.25
2023-01-22T18:28:58.885Z,92.45
2023-01-22T18:31:27.997Z,51.22
2023-01-22T18:33:57.722Z,54.00
2023-01-22T18:36:28.461Z,48.78
2023-01-22T18:39:02.700Z,120.00
2023-01-22T18:41:30.801Z,69.75
2023-01-22T18:44:00.793Z,70.75
2023-01-22T18:46:34.211Z,242.10
2023-01-22T18:49:04.663Z,130.13
2023-01-22T18:51:33.312Z,120.55
2023-01-22T18:54:03.232Z,111.57
2023-01-22T18:56:30.906Z,64.80
2023-01-22T18:58:58.887Z,53.67
2023-01-22T19:01:35.405Z,75.05
2023-01-22T19:04:06.035Z,55.90
2023-01-22T19:06:37.100Z,78.70
2023-01-22T19:09:14.271Z,60.75
2023-01-22T19:11:44.063Z,58.00
2023-01-22T19:14:16.467Z,51.67
2023-01-22T19:16:45.004Z,71.63
2023-01-22T19:19:13.649Z,48.17
2023-01-22T19:21:46.682Z,50.35
2023-01-22T19:24:17.707Z,55.40
2023-01-22T19:26:46.616Z,51.78
2023-01-22T19:29:17.528Z,49.05
2023-01-22T19:31:48.628Z,61.75
2023-01-22T19:34:23.344Z,68.53
2023-01-22T19:36:56.802Z,65.38
2023-01-22T19:39:28.178Z,53.05
2023-01-22T19:41:56.714Z,49.38
2023-01-22T19:44:24.351Z,52.17
2023-01-22T19:46:51.654Z,48.15
2023-01-22T19:49:19.789Z,59.70
2023-01-22T19:51:47.208Z,53.80
2023-01-22T19:54:15.069Z,56.33
2023-01-22T19:56:45.499Z,50.15
2023-01-22T19:59:18.363Z,47.17
2023-01-22T20:01:47.348Z,44.10
2023-01-22T20:04:26.382Z,47.95
2023-01-22T20:06:59.408Z,48.95
2023-01-22T20:09:27.191Z,53.42
2023-01-22T20:11:55.977Z,57.75
2023-01-22T20:14:32.885Z,81.55
2023-01-22T20:17:01.792Z,47.17
2023-01-22T20:19:30.652Z,46.58
2023-01-22T20:21:58.155Z,70.15
2023-01-22T20:24:25.869Z,55.97
2023-01-22T20:26:58.059Z,60.20
2023-01-22T20:31:53.332Z,40.95
2023-01-22T20:34:21.595Z,43.42
2023-01-22T20:36:49.016Z,46.10
2023-01-22T20:39:16.688Z,41.95
2023-01-22T20:41:45.605Z,42.97
2023-01-22T20:44:14.055Z,41.30
2023-01-22T20:46:44.440Z,46.58
2023-01-22T20:49:12.646Z,79.43
2023-01-22T20:51:40.301Z,46.92
2023-01-22T20:54:08.026Z,49.92
2023-01-22T20:56:35.849Z,45.08
2023-01-22T20:59:10.974Z,55.22
2023-01-22T21:01:38.865Z,43.88
2023-01-22T21:04:07.085Z,47.38
2023-01-22T21:06:36.178Z,47.72
2023-01-22T21:09:04.740Z,48.90
2023-01-22T21:11:34.352Z,50.50
2023-01-22T21:14:05.100Z,53.83
2023-01-22T21:16:35.793Z,80.00
2023-01-22T21:19:15.953Z,78.18
2023-01-22T21:21:43.586Z,54.47
2023-01-22T21:24:11.256Z,51.65
2023-01-22T21:26:39.129Z,73.13
2023-01-22T21:29:09.192Z,77.55
2023-01-22T21:31:37.307Z,50.90
2023-01-22T21:34:06.410Z,64.10
2023-01-22T21:36:36.448Z,57.28
2023-01-22T21:39:06.376Z,57.53
2023-01-22T21:41:34.165Z,63.35
2023-01-22T21:44:20.626Z,67.05
2023-01-22T21:46:48.180Z,49.67
2023-01-22T21:49:22.682Z,48.30
2023-01-22T21:52:01.105Z,54.78
2023-01-22T21:54:35.256Z,46.25
2023-01-22T21:57:03.670Z,55.63
2023-01-22T21:59:31.619Z,49.95
2023-01-22T22:01:58.878Z,48.17
2023-01-22T22:04:27.744Z,79.55
2023-01-22T22:06:55.293Z,54.83
2023-01-22T22:09:25.721Z,46.28
2023-01-22T22:11:58.203Z,44.60
2023-01-22T22:14:26.191Z,49.15
2023-01-22T22:16:53.845Z,54.97
2023-01-22T22:19:22.442Z,59.53
2023-01-22T22:21:51.132Z,49.10
2023-01-22T22:24:20.070Z,51.15
2023-01-22T22:26:47.448Z,48.50
2023-01-22T22:29:15.063Z,44.30
2023-01-22T22:31:43.128Z,69.22
2023-01-22T22:34:10.947Z,47.75
2023-01-22T22:36:38.236Z,47.40
2023-01-22T22:39:08.600Z,57.10
2023-01-22T22:41:38.480Z,46.47
2023-01-22T22:44:07.178Z,43.13
2023-01-22T22:46:37.005Z,42.38
2023-01-22T22:49:05.526Z,51.55
2023-01-22T22:51:35.602Z,46.15
2023-01-22T22:54:11.595Z,48.15
2023-01-22T22:56:38.780Z,58.08
2023-01-22T22:59:06.627Z,53.28
2023-01-22T23:01:36.740Z,51.60
2023-01-22T23:04:06.059Z,50.80
2023-01-22T23:06:35.018Z,84.90
2023-01-22T23:09:13.253Z,50.25
2023-01-22T23:11:40.906Z,54.20
2023-01-22T23:14:09.142Z,55.85
2023-01-22T23:16:41.658Z,45.90
2023-01-22T23:19:14.259Z,42.90
2023-01-22T23:21:41.853Z,51.08
2023-01-22T23:24:11.878Z,44.92
2023-01-22T23:26:41.047Z,47.75
2023-01-22T23:29:11.235Z,39.90
2023-01-22T23:31:39.533Z,41.88
2023-01-22T23:34:12.726Z,41.10
2023-01-22T23:36:43.614Z,49.17
2023-01-22T23:39:12.791Z,49.85
2023-01-22T23:41:40.304Z,49.85
2023-01-22T23:44:07.975Z,47.40
2023-01-22T23:46:36.484Z,55.38
2023-01-22T23:49:04.566Z,60.38
2023-01-22T23:51:32.294Z,52.88
2023-01-22T23:54:00.024Z,57.28
2023-01-22T23:56:32.536Z,52.95
2023-01-22T23:59:00.096Z,66.45
